sensor_id;sensor_type;location;lat;lon;timestamp;P1;durP1;ratioP1;P2;durP2;ratioP2
11439;SDS011;5776;51.814;4.510;2022-07-05T00:01:06;8.70;;;2.72;;
11439;SDS011;5776;51.814;4.510;2022-07-05T00:03:32;6.13;;;2.20;;
11439;SDS011;5776;51.814;4.510;2022-07-05T00:05:59;9.70;;;2.50;;
11439;SDS011;5776;51.814;4.510;2022-07-05T00:08:25;6.38;;;3.03;;
11439;SDS011;5776;51.814;4.510;2022-07-05T00:10:51;7.78;;;2.58;;
11439;SDS011;5776;51.814;4.510;2022-07-05T00:13:17;5.82;;;2.70;;
11439;SDS011;5776;51.814;4.510;2022-07-05T00:15:43;5.28;;;2.88;;
11439;SDS011;5776;51.814;4.510;2022-07-05T00:18:09;8.55;;;3.08;;
11439;SDS011;5776;51.814;4.510;2022-07-05T00:20:35;4.05;;;3.30;;
11439;SDS011;5776;51.814;4.510;2022-07-05T00:23:01;5.65;;;3.03;;
11439;SDS011;5776;51.814;4.510;2022-07-05T00:25:27;5.50;;;3.17;;
11439;SDS011;5776;51.814;4.510;2022-07-05T00:27:53;8.27;;;3.42;;
11439;SDS011;5776;51.814;4.510;2022-07-05T00:30:19;5.72;;;4.35;;
11439;SDS011;5776;51.814;4.510;2022-07-05T00:32:45;8.43;;;4.78;;
11439;SDS011;5776;51.814;4.510;2022-07-05T00:35:11;7.72;;;3.70;;
11439;SDS011;5776;51.814;4.510;2022-07-05T00:37:37;3.10;;;2.60;;
11439;SDS011;5776;51.814;4.510;2022-07-05T00:40:04;3.78;;;2.42;;
11439;SDS011;5776;51.814;4.510;2022-07-05T00:42:31;4.40;;;3.33;;
11439;SDS011;5776;51.814;4.510;2022-07-05T00:44:57;6.05;;;4.10;;
11439;SDS011;5776;51.814;4.510;2022-07-05T00:47:23;4.70;;;4.15;;
11439;SDS011;5776;51.814;4.510;2022-07-05T00:49:49;9.38;;;4.80;;
11439;SDS011;5776;51.814;4.510;2022-07-05T00:52:15;7.70;;;4.45;;
11439;SDS011;5776;51.814;4.510;2022-07-05T00:54:41;5.22;;;3.90;;
11439;SDS011;5776;51.814;4.510;2022-07-05T00:57:07;5.93;;;3.08;;
11439;SDS011;5776;51.814;4.510;2022-07-05T00:59:33;3.15;;;2.58;;
11439;SDS011;5776;51.814;4.510;2022-07-05T01:02:00;12.23;;;2.63;;
11439;SDS011;5776;51.814;4.510;2022-07-05T01:04:26;5.53;;;3.45;;
11439;SDS011;5776;51.814;4.510;2022-07-05T01:06:53;6.10;;;3.90;;
11439;SDS011;5776;51.814;4.510;2022-07-05T01:09:19;4.40;;;3.78;;
11439;SDS011;5776;51.814;4.510;2022-07-05T01:11:47;7.43;;;3.80;;
11439;SDS011;5776;51.814;4.510;2022-07-05T01:14:19;6.75;;;3.80;;
11439;SDS011;5776;51.814;4.510;2022-07-05T01:16:47;5.30;;;3.88;;
11439;SDS011;5776;51.814;4.510;2022-07-05T01:19:15;4.60;;;3.92;;
11439;SDS011;5776;51.814;4.510;2022-07-05T01:21:43;5.38;;;4.22;;
11439;SDS011;5776;51.814;4.510;2022-07-05T01:24:11;8.18;;;4.03;;
11439;SDS011;5776;51.814;4.510;2022-07-05T01:26:38;4.28;;;3.22;;
11439;SDS011;5776;51.814;4.510;2022-07-05T01:29:05;4.72;;;3.17;;
11439;SDS011;5776;51.814;4.510;2022-07-05T01:31:32;3.60;;;2.58;;
11439;SDS011;5776;51.814;4.510;2022-07-05T01:33:59;5.78;;;2.97;;
11439;SDS011;5776;51.814;4.510;2022-07-05T01:36:25;3.70;;;2.88;;
11439;SDS011;5776;51.814;4.510;2022-07-05T01:38:51;3.28;;;2.78;;
11439;SDS011;5776;51.814;4.510;2022-07-05T01:41:18;3.65;;;2.65;;
11439;SDS011;5776;51.814;4.510;2022-07-05T01:43:43;5.00;;;3.55;;
11439;SDS011;5776;51.814;4.510;2022-07-05T01:46:10;4.43;;;3.03;;
11439;SDS011;5776;51.814;4.510;2022-07-05T01:48:38;3.28;;;2.42;;
11439;SDS011;5776;51.814;4.510;2022-07-05T01:51:07;3.60;;;2.45;;
11439;SDS011;5776;51.814;4.510;2022-07-05T01:53:39;3.65;;;2.58;;
11439;SDS011;5776;51.814;4.510;2022-07-05T01:56:08;2.35;;;1.80;;
11439;SDS011;5776;51.814;4.510;2022-07-05T01:58:34;4.82;;;2.83;;
11439;SDS011;5776;51.814;4.510;2022-07-05T02:01:01;5.57;;;3.42;;
11439;SDS011;5776;51.814;4.510;2022-07-05T02:03:27;3.65;;;2.90;;
11439;SDS011;5776;51.814;4.510;2022-07-05T02:05:54;2.45;;;2.25;;
11439;SDS011;5776;51.814;4.510;2022-07-05T02:08:20;4.28;;;3.15;;
11439;SDS011;5776;51.814;4.510;2022-07-05T02:10:47;7.80;;;2.95;;
11439;SDS011;5776;51.814;4.510;2022-07-05T02:13:13;7.05;;;4.40;;
11439;SDS011;5776;51.814;4.510;2022-07-05T02:15:40;5.18;;;4.68;;
11439;SDS011;5776;51.814;4.510;2022-07-05T02:18:07;5.57;;;3.95;;
11439;SDS011;5776;51.814;4.510;2022-07-05T02:20:34;6.53;;;4.35;;
11439;SDS011;5776;51.814;4.510;2022-07-05T02:23:02;6.63;;;4.53;;
11439;SDS011;5776;51.814;4.510;2022-07-05T02:25:29;10.20;;;4.72;;
11439;SDS011;5776;51.814;4.510;2022-07-05T02:27:55;10.32;;;5.07;;
11439;SDS011;5776;51.814;4.510;2022-07-05T02:30:21;4.57;;;4.18;;
11439;SDS011;5776;51.814;4.510;2022-07-05T02:32:48;5.40;;;3.92;;
11439;SDS011;5776;51.814;4.510;2022-07-05T02:35:14;5.10;;;3.35;;
11439;SDS011;5776;51.814;4.510;2022-07-05T02:37:39;4.97;;;4.47;;
11439;SDS011;5776;51.814;4.510;2022-07-05T02:40:06;5.05;;;3.97;;
11439;SDS011;5776;51.814;4.510;2022-07-05T02:42:33;5.97;;;4.45;;
11439;SDS011;5776;51.814;4.510;2022-07-05T02:44:59;6.35;;;4.28;;
11439;SDS011;5776;51.814;4.510;2022-07-05T02:47:28;5.03;;;4.30;;
11439;SDS011;5776;51.814;4.510;2022-07-05T02:49:57;6.47;;;4.47;;
11439;SDS011;5776;51.814;4.510;2022-07-05T02:52:24;7.50;;;4.40;;
11439;SDS011;5776;51.814;4.510;2022-07-05T02:54:50;4.70;;;3.40;;
11439;SDS011;5776;51.814;4.510;2022-07-05T02:57:16;6.47;;;4.97;;
11439;SDS011;5776;51.814;4.510;2022-07-05T02:59:42;9.15;;;5.05;;
11439;SDS011;5776;51.814;4.510;2022-07-05T03:02:08;9.32;;;4.57;;
11439;SDS011;5776;51.814;4.510;2022-07-05T03:04:34;4.97;;;3.58;;
11439;SDS011;5776;51.814;4.510;2022-07-05T03:07:00;5.03;;;3.83;;
11439;SDS011;5776;51.814;4.510;2022-07-05T03:09:26;5.72;;;3.70;;
11439;SDS011;5776;51.814;4.510;2022-07-05T03:11:52;9.10;;;5.03;;
11439;SDS011;5776;51.814;4.510;2022-07-05T03:14:18;7.82;;;6.00;;
11439;SDS011;5776;51.814;4.510;2022-07-05T03:16:45;6.80;;;5.40;;
11439;SDS011;5776;51.814;4.510;2022-07-05T03:19:11;6.05;;;4.55;;
11439;SDS011;5776;51.814;4.510;2022-07-05T03:21:37;5.25;;;3.95;;
11439;SDS011;5776;51.814;4.510;2022-07-05T03:24:03;4.72;;;3.55;;
11439;SDS011;5776;51.814;4.510;2022-07-05T03:26:30;6.22;;;3.88;;
11439;SDS011;5776;51.814;4.510;2022-07-05T03:28:56;7.25;;;3.92;;
11439;SDS011;5776;51.814;4.510;2022-07-05T03:31:21;6.35;;;4.00;;
11439;SDS011;5776;51.814;4.510;2022-07-05T03:33:47;9.25;;;3.78;;
11439;SDS011;5776;51.814;4.510;2022-07-05T03:36:13;6.60;;;4.60;;
11439;SDS011;5776;51.814;4.510;2022-07-05T03:38:39;13.40;;;6.13;;
11439;SDS011;5776;51.814;4.510;2022-07-05T03:41:06;15.52;;;5.60;;
11439;SDS011;5776;51.814;4.510;2022-07-05T03:43:32;10.45;;;5.75;;
11439;SDS011;5776;51.814;4.510;2022-07-05T03:45:58;12.30;;;5.70;;
11439;SDS011;5776;51.814;4.510;2022-07-05T03:48:24;6.10;;;4.15;;
11439;SDS011;5776;51.814;4.510;2022-07-05T03:50:50;11.20;;;5.22;;
11439;SDS011;5776;51.814;4.510;2022-07-05T03:53:16;9.23;;;5.00;;
11439;SDS011;5776;51.814;4.510;2022-07-05T03:55:42;9.63;;;4.25;;
11439;SDS011;5776;51.814;4.510;2022-07-05T03:58:08;5.38;;;3.70;;
11439;SDS011;5776;51.814;4.510;2022-07-05T04:00:34;6.05;;;2.70;;
11439;SDS011;5776;51.814;4.510;2022-07-05T04:03:00;4.40;;;3.00;;
11439;SDS011;5776;51.814;4.510;2022-07-05T04:05:26;3.45;;;2.58;;
11439;SDS011;5776;51.814;4.510;2022-07-05T04:07:54;10.20;;;3.53;;
11439;SDS011;5776;51.814;4.510;2022-07-05T04:10:21;11.98;;;4.57;;
11439;SDS011;5776;51.814;4.510;2022-07-05T04:12:48;10.75;;;6.55;;
11439;SDS011;5776;51.814;4.510;2022-07-05T04:15:14;6.63;;;4.72;;
11439;SDS011;5776;51.814;4.510;2022-07-05T04:20:16;11.40;;;6.05;;
11439;SDS011;5776;51.814;4.510;2022-07-05T04:22:43;8.00;;;5.57;;
11439;SDS011;5776;51.814;4.510;2022-07-05T04:25:09;8.25;;;6.20;;
11439;SDS011;5776;51.814;4.510;2022-07-05T04:27:51;7.72;;;5.82;;
11439;SDS011;5776;51.814;4.510;2022-07-05T04:30:19;7.10;;;4.85;;
11439;SDS011;5776;51.814;4.510;2022-07-05T04:32:47;6.55;;;4.82;;
11439;SDS011;5776;51.814;4.510;2022-07-05T04:35:13;7.43;;;5.03;;
11439;SDS011;5776;51.814;4.510;2022-07-05T04:37:40;5.25;;;3.22;;
11439;SDS011;5776;51.814;4.510;2022-07-05T04:40:07;6.60;;;3.63;;
11439;SDS011;5776;51.814;4.510;2022-07-05T04:42:35;5.53;;;3.92;;
11439;SDS011;5776;51.814;4.510;2022-07-05T04:45:01;9.15;;;4.57;;
11439;SDS011;5776;51.814;4.510;2022-07-05T04:47:28;12.70;;;6.85;;
11439;SDS011;5776;51.814;4.510;2022-07-05T04:49:55;10.57;;;6.63;;
11439;SDS011;5776;51.814;4.510;2022-07-05T04:52:23;11.52;;;8.23;;
11439;SDS011;5776;51.814;4.510;2022-07-05T04:54:49;7.55;;;5.15;;
11439;SDS011;5776;51.814;4.510;2022-07-05T04:57:15;9.63;;;5.20;;
11439;SDS011;5776;51.814;4.510;2022-07-05T04:59:41;8.05;;;5.57;;
11439;SDS011;5776;51.814;4.510;2022-07-05T05:02:07;14.20;;;6.85;;
11439;SDS011;5776;51.814;4.510;2022-07-05T05:04:33;8.20;;;5.57;;
11439;SDS011;5776;51.814;4.510;2022-07-05T05:07:00;14.23;;;8.05;;
11439;SDS011;5776;51.814;4.510;2022-07-05T05:09:26;11.13;;;8.23;;
11439;SDS011;5776;51.814;4.510;2022-07-05T05:11:52;10.90;;;8.10;;
11439;SDS011;5776;51.814;4.510;2022-07-05T05:14:18;14.93;;;7.60;;
11439;SDS011;5776;51.814;4.510;2022-07-05T05:16:44;12.32;;;7.95;;
11439;SDS011;5776;51.814;4.510;2022-07-05T05:19:11;11.45;;;7.78;;
11439;SDS011;5776;51.814;4.510;2022-07-05T05:21:37;13.73;;;6.50;;
11439;SDS011;5776;51.814;4.510;2022-07-05T05:24:05;10.38;;;5.60;;
11439;SDS011;5776;51.814;4.510;2022-07-05T05:26:32;17.48;;;8.18;;
11439;SDS011;5776;51.814;4.510;2022-07-05T05:28:58;13.98;;;8.35;;
11439;SDS011;5776;51.814;4.510;2022-07-05T05:31:24;13.80;;;7.10;;
11439;SDS011;5776;51.814;4.510;2022-07-05T05:33:50;10.75;;;7.68;;
11439;SDS011;5776;51.814;4.510;2022-07-05T05:36:16;10.68;;;7.45;;
11439;SDS011;5776;51.814;4.510;2022-07-05T05:38:42;11.50;;;7.13;;
11439;SDS011;5776;51.814;4.510;2022-07-05T05:41:08;11.20;;;8.05;;
11439;SDS011;5776;51.814;4.510;2022-07-05T05:43:34;11.77;;;7.95;;
11439;SDS011;5776;51.814;4.510;2022-07-05T05:46:00;15.70;;;8.70;;
11439;SDS011;5776;51.814;4.510;2022-07-05T05:48:26;13.30;;;8.63;;
11439;SDS011;5776;51.814;4.510;2022-07-05T05:50:52;13.95;;;8.60;;
11439;SDS011;5776;51.814;4.510;2022-07-05T05:53:18;13.85;;;7.45;;
11439;SDS011;5776;51.814;4.510;2022-07-05T05:55:44;14.90;;;8.02;;
11439;SDS011;5776;51.814;4.510;2022-07-05T05:58:14;14.05;;;8.15;;
11439;SDS011;5776;51.814;4.510;2022-07-05T06:00:42;11.43;;;8.00;;
11439;SDS011;5776;51.814;4.510;2022-07-05T06:03:08;11.35;;;7.43;;
11439;SDS011;5776;51.814;4.510;2022-07-05T06:05:34;13.02;;;6.82;;
11439;SDS011;5776;51.814;4.510;2022-07-05T06:08:00;11.80;;;7.28;;
11439;SDS011;5776;51.814;4.510;2022-07-05T06:10:28;12.70;;;7.93;;
11439;SDS011;5776;51.814;4.510;2022-07-05T06:12:58;12.85;;;7.75;;
11439;SDS011;5776;51.814;4.510;2022-07-05T06:15:26;12.70;;;8.02;;
11439;SDS011;5776;51.814;4.510;2022-07-05T06:17:53;11.52;;;7.50;;
11439;SDS011;5776;51.814;4.510;2022-07-05T06:20:25;11.90;;;7.75;;
11439;SDS011;5776;51.814;4.510;2022-07-05T06:22:52;10.18;;;7.88;;
11439;SDS011;5776;51.814;4.510;2022-07-05T06:25:19;13.90;;;8.10;;
11439;SDS011;5776;51.814;4.510;2022-07-05T06:27:46;14.75;;;8.38;;
11439;SDS011;5776;51.814;4.510;2022-07-05T06:30:17;15.23;;;7.90;;
11439;SDS011;5776;51.814;4.510;2022-07-05T06:32:45;12.88;;;8.30;;
11439;SDS011;5776;51.814;4.510;2022-07-05T06:35:12;12.65;;;8.70;;
11439;SDS011;5776;51.814;4.510;2022-07-05T06:37:42;12.07;;;8.70;;
11439;SDS011;5776;51.814;4.510;2022-07-05T06:40:11;12.95;;;9.60;;
11439;SDS011;5776;51.814;4.510;2022-07-05T06:42:38;13.00;;;9.07;;
11439;SDS011;5776;51.814;4.510;2022-07-05T06:45:07;15.30;;;10.55;;
11439;SDS011;5776;51.814;4.510;2022-07-05T06:47:34;14.32;;;10.13;;
11439;SDS011;5776;51.814;4.510;2022-07-05T06:50:00;16.83;;;10.05;;
11439;SDS011;5776;51.814;4.510;2022-07-05T06:52:30;15.02;;;9.63;;
11439;SDS011;5776;51.814;4.510;2022-07-05T06:54:58;15.32;;;9.48;;
11439;SDS011;5776;51.814;4.510;2022-07-05T06:57:26;15.43;;;8.98;;
11439;SDS011;5776;51.814;4.510;2022-07-05T06:59:53;12.55;;;8.55;;
11439;SDS011;5776;51.814;4.510;2022-07-05T07:02:19;12.02;;;7.50;;
11439;SDS011;5776;51.814;4.510;2022-07-05T07:04:48;7.95;;;5.00;;
11439;SDS011;5776;51.814;4.510;2022-07-05T07:07:15;10.45;;;4.20;;
11439;SDS011;5776;51.814;4.510;2022-07-05T07:10:00;10.65;;;4.10;;
11439;SDS011;5776;51.814;4.510;2022-07-05T07:12:29;5.82;;;3.75;;
11439;SDS011;5776;51.814;4.510;2022-07-05T07:14:56;6.55;;;3.25;;
11439;SDS011;5776;51.814;4.510;2022-07-05T07:17:23;4.60;;;3.10;;
11439;SDS011;5776;51.814;4.510;2022-07-05T07:19:49;7.32;;;2.83;;
11439;SDS011;5776;51.814;4.510;2022-07-05T07:22:15;5.50;;;2.63;;
11439;SDS011;5776;51.814;4.510;2022-07-05T07:24:41;3.83;;;2.38;;
11439;SDS011;5776;51.814;4.510;2022-07-05T07:27:07;5.03;;;2.33;;
11439;SDS011;5776;51.814;4.510;2022-07-05T07:29:34;2.53;;;2.08;;
11439;SDS011;5776;51.814;4.510;2022-07-05T07:32:02;6.70;;;2.00;;
11439;SDS011;5776;51.814;4.510;2022-07-05T07:34:29;4.45;;;2.28;;
11439;SDS011;5776;51.814;4.510;2022-07-05T07:36:56;6.97;;;2.03;;
11439;SDS011;5776;51.814;4.510;2022-07-05T07:39:22;3.63;;;2.15;;
11439;SDS011;5776;51.814;4.510;2022-07-05T07:41:49;3.58;;;1.75;;
11439;SDS011;5776;51.814;4.510;2022-07-05T07:44:16;7.40;;;1.90;;
11439;SDS011;5776;51.814;4.510;2022-07-05T07:46:42;4.53;;;1.77;;
11439;SDS011;5776;51.814;4.510;2022-07-05T07:49:08;3.30;;;1.40;;
11439;SDS011;5776;51.814;4.510;2022-07-05T07:51:35;4.70;;;1.23;;
11439;SDS011;5776;51.814;4.510;2022-07-05T07:54:01;3.75;;;1.30;;
11439;SDS011;5776;51.814;4.510;2022-07-05T07:56:27;3.00;;;1.33;;
11439;SDS011;5776;51.814;4.510;2022-07-05T07:58:53;4.35;;;1.58;;
11439;SDS011;5776;51.814;4.510;2022-07-05T08:01:19;5.07;;;1.38;;
11439;SDS011;5776;51.814;4.510;2022-07-05T08:03:45;3.13;;;1.13;;
11439;SDS011;5776;51.814;4.510;2022-07-05T08:06:12;5.13;;;1.60;;
11439;SDS011;5776;51.814;4.510;2022-07-05T08:08:39;5.70;;;1.30;;
11439;SDS011;5776;51.814;4.510;2022-07-05T08:11:07;5.05;;;1.48;;
11439;SDS011;5776;51.814;4.510;2022-07-05T08:13:34;4.30;;;1.13;;
11439;SDS011;5776;51.814;4.510;2022-07-05T08:16:01;5.15;;;1.10;;
11439;SDS011;5776;51.814;4.510;2022-07-05T08:18:28;7.32;;;1.02;;
11439;SDS011;5776;51.814;4.510;2022-07-05T08:21:13;5.07;;;0.93;;
11439;SDS011;5776;51.814;4.510;2022-07-05T08:24:01;3.17;;;1.10;;
11439;SDS011;5776;51.814;4.510;2022-07-05T08:26:29;4.07;;;1.65;;
11439;SDS011;5776;51.814;4.510;2022-07-05T08:28:56;5.18;;;1.20;;
11439;SDS011;5776;51.814;4.510;2022-07-05T08:31:24;5.38;;;1.55;;
11439;SDS011;5776;51.814;4.510;2022-07-05T08:33:51;3.75;;;1.15;;
11439;SDS011;5776;51.814;4.510;2022-07-05T08:36:17;3.17;;;1.15;;
11439;SDS011;5776;51.814;4.510;2022-07-05T08:38:43;6.72;;;1.38;;
11439;SDS011;5776;51.814;4.510;2022-07-05T08:41:09;3.15;;;0.90;;
11439;SDS011;5776;51.814;4.510;2022-07-05T08:43:40;3.67;;;1.02;;
11439;SDS011;5776;51.814;4.510;2022-07-05T08:46:10;4.45;;;0.95;;
11439;SDS011;5776;51.814;4.510;2022-07-05T08:48:37;2.55;;;0.80;;
11439;SDS011;5776;51.814;4.510;2022-07-05T08:51:11;5.05;;;1.02;;
11439;SDS011;5776;51.814;4.510;2022-07-05T08:53:39;2.72;;;0.90;;
11439;SDS011;5776;51.814;4.510;2022-07-05T08:56:09;2.65;;;1.13;;
11439;SDS011;5776;51.814;4.510;2022-07-05T08:58:37;4.70;;;1.17;;
11439;SDS011;5776;51.814;4.510;2022-07-05T09:01:04;2.38;;;1.10;;
11439;SDS011;5776;51.814;4.510;2022-07-05T09:03:52;4.10;;;1.48;;
11439;SDS011;5776;51.814;4.510;2022-07-05T09:06:21;5.80;;;1.17;;
11439;SDS011;5776;51.814;4.510;2022-07-05T09:08:51;7.85;;;1.20;;
11439;SDS011;5776;51.814;4.510;2022-07-05T09:11:19;6.65;;;1.20;;
11439;SDS011;5776;51.814;4.510;2022-07-05T09:14:21;3.65;;;1.55;;
11439;SDS011;5776;51.814;4.510;2022-07-05T09:16:48;1.92;;;1.25;;
11439;SDS011;5776;51.814;4.510;2022-07-05T09:19:15;5.97;;;1.00;;
11439;SDS011;5776;51.814;4.510;2022-07-05T09:21:41;3.05;;;1.20;;
11439;SDS011;5776;51.814;4.510;2022-07-05T09:24:10;9.23;;;1.45;;
11439;SDS011;5776;51.814;4.510;2022-07-05T09:26:45;3.72;;;1.30;;
11439;SDS011;5776;51.814;4.510;2022-07-05T09:29:15;3.08;;;1.00;;
11439;SDS011;5776;51.814;4.510;2022-07-05T09:31:43;7.05;;;1.40;;
11439;SDS011;5776;51.814;4.510;2022-07-05T09:36:46;6.07;;;1.60;;
11439;SDS011;5776;51.814;4.510;2022-07-05T09:39:13;6.43;;;1.10;;
11439;SDS011;5776;51.814;4.510;2022-07-05T09:41:39;3.78;;;1.20;;
11439;SDS011;5776;51.814;4.510;2022-07-05T09:44:05;2.63;;;1.05;;
11439;SDS011;5776;51.814;4.510;2022-07-05T09:46:31;5.28;;;1.42;;
11439;SDS011;5776;51.814;4.510;2022-07-05T09:48:58;3.08;;;1.05;;
11439;SDS011;5776;51.814;4.510;2022-07-05T09:51:25;5.75;;;1.40;;
11439;SDS011;5776;51.814;4.510;2022-07-05T09:53:51;2.25;;;1.00;;
11439;SDS011;5776;51.814;4.510;2022-07-05T09:56:19;8.85;;;1.20;;
11439;SDS011;5776;51.814;4.510;2022-07-05T09:58:47;3.15;;;1.10;;
11439;SDS011;5776;51.814;4.510;2022-07-05T10:01:26;5.63;;;1.20;;
11439;SDS011;5776;51.814;4.510;2022-07-05T10:03:54;3.58;;;0.90;;
11439;SDS011;5776;51.814;4.510;2022-07-05T10:06:25;2.50;;;0.82;;
11439;SDS011;5776;51.814;4.510;2022-07-05T10:08:52;2.58;;;0.95;;
11439;SDS011;5776;51.814;4.510;2022-07-05T10:11:19;5.10;;;1.25;;
11439;SDS011;5776;51.814;4.510;2022-07-05T10:13:50;5.70;;;1.48;;
11439;SDS011;5776;51.814;4.510;2022-07-05T10:16:17;3.25;;;0.85;;
11439;SDS011;5776;51.814;4.510;2022-07-05T10:18:46;8.55;;;1.15;;
11439;SDS011;5776;51.814;4.510;2022-07-05T10:21:21;5.47;;;1.20;;
11439;SDS011;5776;51.814;4.510;2022-07-05T10:23:51;3.15;;;1.20;;
11439;SDS011;5776;51.814;4.510;2022-07-05T10:26:22;3.42;;;0.88;;
11439;SDS011;5776;51.814;4.510;2022-07-05T10:28:50;5.20;;;1.23;;
11439;SDS011;5776;51.814;4.510;2022-07-05T10:31:19;2.38;;;0.88;;
11439;SDS011;5776;51.814;4.510;2022-07-05T10:33:45;6.82;;;1.20;;
11439;SDS011;5776;51.814;4.510;2022-07-05T10:36:11;5.55;;;1.27;;
11439;SDS011;5776;51.814;4.510;2022-07-05T10:38:40;3.92;;;1.20;;
11439;SDS011;5776;51.814;4.510;2022-07-05T10:41:09;6.53;;;1.00;;
11439;SDS011;5776;51.814;4.510;2022-07-05T10:43:38;4.75;;;1.17;;
11439;SDS011;5776;51.814;4.510;2022-07-05T10:46:05;4.72;;;1.17;;
11439;SDS011;5776;51.814;4.510;2022-07-05T10:48:33;4.57;;;1.05;;
11439;SDS011;5776;51.814;4.510;2022-07-05T10:51:01;6.47;;;1.40;;
11439;SDS011;5776;51.814;4.510;2022-07-05T11:03:42;6.45;;;1.23;;
11439;SDS011;5776;51.814;4.510;2022-07-05T11:06:23;5.00;;;1.40;;
11439;SDS011;5776;51.814;4.510;2022-07-05T11:11:26;6.20;;;1.15;;
11439;SDS011;5776;51.814;4.510;2022-07-05T11:13:56;4.13;;;1.00;;
11439;SDS011;5776;51.814;4.510;2022-07-05T11:16:27;7.72;;;1.08;;
11439;SDS011;5776;51.814;4.510;2022-07-05T11:19:09;6.00;;;1.58;;
11439;SDS011;5776;51.814;4.510;2022-07-05T11:22:02;3.00;;;0.93;;
11439;SDS011;5776;51.814;4.510;2022-07-05T11:24:30;4.82;;;0.93;;
11439;SDS011;5776;51.814;4.510;2022-07-05T11:26:59;3.90;;;1.05;;
11439;SDS011;5776;51.814;4.510;2022-07-05T11:29:44;3.03;;;0.85;;
11439;SDS011;5776;51.814;4.510;2022-07-05T11:32:16;7.18;;;1.30;;
11439;SDS011;5776;51.814;4.510;2022-07-05T11:34:43;4.07;;;0.98;;
11439;SDS011;5776;51.814;4.510;2022-07-05T11:37:17;6.53;;;1.27;;
11439;SDS011;5776;51.814;4.510;2022-07-05T11:40:25;3.63;;;1.13;;
11439;SDS011;5776;51.814;4.510;2022-07-05T11:42:46;9.07;;;1.10;;
11439;SDS011;5776;51.814;4.510;2022-07-05T11:45:14;3.65;;;0.70;;
11439;SDS011;5776;51.814;4.510;2022-07-05T11:47:40;3.65;;;0.90;;
11439;SDS011;5776;51.814;4.510;2022-07-05T11:50:07;3.35;;;1.10;;
11439;SDS011;5776;51.814;4.510;2022-07-05T11:52:34;4.55;;;0.98;;
11439;SDS011;5776;51.814;4.510;2022-07-05T11:55:05;5.10;;;0.90;;
11439;SDS011;5776;51.814;4.510;2022-07-05T11:57:35;4.53;;;0.60;;
11439;SDS011;5776;51.814;4.510;2022-07-05T12:00:03;4.03;;;0.88;;
11439;SDS011;5776;51.814;4.510;2022-07-05T12:02:29;1.45;;;0.60;;
11439;SDS011;5776;51.814;4.510;2022-07-05T12:04:56;3.60;;;1.00;;
11439;SDS011;5776;51.814;4.510;2022-07-05T12:09:57;2.70;;;1.10;;
11439;SDS011;5776;51.814;4.510;2022-07-05T12:12:43;3.80;;;0.82;;
11439;SDS011;5776;51.814;4.510;2022-07-05T12:15:10;3.90;;;0.77;;
11439;SDS011;5776;51.814;4.510;2022-07-05T12:17:40;5.25;;;0.93;;
11439;SDS011;5776;51.814;4.510;2022-07-05T12:20:11;5.38;;;0.70;;
11439;SDS011;5776;51.814;4.510;2022-07-05T12:22:39;3.78;;;0.88;;
11439;SDS011;5776;51.814;4.510;2022-07-05T12:25:08;2.63;;;0.68;;
11439;SDS011;5776;51.814;4.510;2022-07-05T12:27:37;3.85;;;1.00;;
11439;SDS011;5776;51.814;4.510;2022-07-05T12:30:05;2.88;;;0.70;;
11439;SDS011;5776;51.814;4.510;2022-07-05T12:32:33;2.35;;;0.60;;
11439;SDS011;5776;51.814;4.510;2022-07-05T12:35:02;2.78;;;0.77;;
11439;SDS011;5776;51.814;4.510;2022-07-05T12:37:28;1.52;;;0.65;;
11439;SDS011;5776;51.814;4.510;2022-07-05T12:40:03;3.35;;;0.98;;
11439;SDS011;5776;51.814;4.510;2022-07-05T12:42:37;2.67;;;0.50;;
11439;SDS011;5776;51.814;4.510;2022-07-05T12:45:14;3.60;;;0.90;;
11439;SDS011;5776;51.814;4.510;2022-07-05T12:47:51;4.28;;;0.90;;
11439;SDS011;5776;51.814;4.510;2022-07-05T12:50:18;2.65;;;0.70;;
11439;SDS011;5776;51.814;4.510;2022-07-05T12:53:01;2.67;;;1.02;;
11439;SDS011;5776;51.814;4.510;2022-07-05T12:55:59;4.53;;;0.85;;
11439;SDS011;5776;51.814;4.510;2022-07-05T12:58:50;3.63;;;0.90;;
11439;SDS011;5776;51.814;4.510;2022-07-05T13:03:54;3.45;;;0.75;;
11439;SDS011;5776;51.814;4.510;2022-07-05T13:06:21;1.73;;;0.80;;
11439;SDS011;5776;51.814;4.510;2022-07-05T13:08:56;3.08;;;0.60;;
11439;SDS011;5776;51.814;4.510;2022-07-05T13:11:29;1.38;;;0.57;;
11439;SDS011;5776;51.814;4.510;2022-07-05T13:13:58;2.67;;;0.70;;
11439;SDS011;5776;51.814;4.510;2022-07-05T13:16:24;2.58;;;0.80;;
11439;SDS011;5776;51.814;4.510;2022-07-05T13:18:50;3.33;;;0.80;;
11439;SDS011;5776;51.814;4.510;2022-07-05T13:21:16;4.40;;;0.93;;
11439;SDS011;5776;51.814;4.510;2022-07-05T13:23:42;3.28;;;0.70;;
11439;SDS011;5776;51.814;4.510;2022-07-05T13:26:08;4.47;;;0.80;;
11439;SDS011;5776;51.814;4.510;2022-07-05T13:28:34;2.20;;;0.60;;
11439;SDS011;5776;51.814;4.510;2022-07-05T13:31:00;3.60;;;0.70;;
11439;SDS011;5776;51.814;4.510;2022-07-05T13:33:25;4.40;;;1.00;;
11439;SDS011;5776;51.814;4.510;2022-07-05T13:35:51;2.17;;;0.60;;
11439;SDS011;5776;51.814;4.510;2022-07-05T13:38:17;2.90;;;0.90;;
11439;SDS011;5776;51.814;4.510;2022-07-05T13:40:43;2.67;;;0.70;;
11439;SDS011;5776;51.814;4.510;2022-07-05T13:43:09;1.48;;;0.60;;
11439;SDS011;5776;51.814;4.510;2022-07-05T13:45:35;3.38;;;0.80;;
11439;SDS011;5776;51.814;4.510;2022-07-05T13:48:01;2.53;;;0.70;;
11439;SDS011;5776;51.814;4.510;2022-07-05T13:50:28;1.85;;;0.80;;
11439;SDS011;5776;51.814;4.510;2022-07-05T13:53:00;3.78;;;0.77;;
11439;SDS011;5776;51.814;4.510;2022-07-05T13:55:27;2.85;;;0.80;;
11439;SDS011;5776;51.814;4.510;2022-07-05T13:57:54;3.35;;;0.90;;
11439;SDS011;5776;51.814;4.510;2022-07-05T14:00:21;3.40;;;0.80;;
11439;SDS011;5776;51.814;4.510;2022-07-05T14:02:47;6.38;;;1.35;;
11439;SDS011;5776;51.814;4.510;2022-07-05T14:05:13;2.70;;;1.20;;
11439;SDS011;5776;51.814;4.510;2022-07-05T14:07:42;3.85;;;0.98;;
11439;SDS011;5776;51.814;4.510;2022-07-05T14:10:08;2.78;;;1.00;;
11439;SDS011;5776;51.814;4.510;2022-07-05T14:12:34;4.55;;;1.00;;
11439;SDS011;5776;51.814;4.510;2022-07-05T14:15:00;3.13;;;1.05;;
11439;SDS011;5776;51.814;4.510;2022-07-05T14:17:26;4.53;;;0.90;;
11439;SDS011;5776;51.814;4.510;2022-07-05T14:19:52;3.72;;;0.80;;
11439;SDS011;5776;51.814;4.510;2022-07-05T14:22:18;3.67;;;0.93;;
11439;SDS011;5776;51.814;4.510;2022-07-05T14:24:44;3.17;;;0.95;;
11439;SDS011;5776;51.814;4.510;2022-07-05T14:27:10;5.00;;;1.23;;
11439;SDS011;5776;51.814;4.510;2022-07-05T14:29:36;1.92;;;0.77;;
11439;SDS011;5776;51.814;4.510;2022-07-05T14:32:02;4.47;;;1.23;;
11439;SDS011;5776;51.814;4.510;2022-07-05T14:34:28;4.65;;;0.77;;
11439;SDS011;5776;51.814;4.510;2022-07-05T14:36:54;2.78;;;0.98;;
11439;SDS011;5776;51.814;4.510;2022-07-05T14:39:20;1.88;;;0.70;;
11439;SDS011;5776;51.814;4.510;2022-07-05T14:41:46;3.65;;;0.98;;
11439;SDS011;5776;51.814;4.510;2022-07-05T14:44:12;2.13;;;0.75;;
11439;SDS011;5776;51.814;4.510;2022-07-05T14:46:41;2.72;;;0.70;;
11439;SDS011;5776;51.814;4.510;2022-07-05T14:49:06;2.40;;;0.93;;
11439;SDS011;5776;51.814;4.510;2022-07-05T14:51:32;2.47;;;0.70;;
11439;SDS011;5776;51.814;4.510;2022-07-05T14:53:58;5.45;;;0.80;;
11439;SDS011;5776;51.814;4.510;2022-07-05T14:56:24;3.95;;;0.95;;
11439;SDS011;5776;51.814;4.510;2022-07-05T14:58:50;4.38;;;0.80;;
11439;SDS011;5776;51.814;4.510;2022-07-05T15:01:16;1.52;;;0.52;;
11439;SDS011;5776;51.814;4.510;2022-07-05T15:03:45;3.75;;;0.85;;
11439;SDS011;5776;51.814;4.510;2022-07-05T15:06:11;3.30;;;0.98;;
11439;SDS011;5776;51.814;4.510;2022-07-05T15:08:37;5.82;;;0.85;;
11439;SDS011;5776;51.814;4.510;2022-07-05T15:11:04;3.15;;;0.93;;
11439;SDS011;5776;51.814;4.510;2022-07-05T15:13:31;6.18;;;1.23;;
11439;SDS011;5776;51.814;4.510;2022-07-05T15:15:57;2.35;;;0.93;;
11439;SDS011;5776;51.814;4.510;2022-07-05T15:18:23;1.42;;;0.75;;
11439;SDS011;5776;51.814;4.510;2022-07-05T15:20:50;3.10;;;0.90;;
11439;SDS011;5776;51.814;4.510;2022-07-05T15:23:19;5.35;;;1.20;;
11439;SDS011;5776;51.814;4.510;2022-07-05T15:25:46;2.47;;;0.93;;